Time;durP1;ratioP1;P1;durP2;ratioP2;P2;SDS_P1;SDS_P2;PMS_P1;PMS_P2;Temp;Humidity;BMP_temperature;BMP_pressure;BME280_temperature;BME280_humidity;BME280_pressure;Samples;Min_cycle;Max_cycle;Signal;HPM_P1;HPM_P2
2022/08/24 00:02:48;;;;;;;33.80;19.73;;;25.00;87.60;;;;;;6182532;28;83406;-56
2022/08/24 00:05:49;;;;;;;36.70;19.48;;;24.90;87.70;;;;;;6186654;28;89689;-57
2022/08/24 00:08:49;;;;;;;33.63;18.42;;;24.80;88.20;;;;;;6168476;28;83308;-57
2022/08/24 00:11:50;;;;;;;30.42;17.70;;;24.80;88.00;;;;;;6128755;28;88868;-57
2022/08/24 00:14:50;;;;;;;28.15;17.67;;;24.90;87.90;;;;;;6183620;28;83253;-58
2022/08/24 00:17:51;;;;;;;30.73;17.80;;;24.90;87.60;;;;;;6196922;28;84217;-57
2022/08/24 00:20:51;;;;;;;35.35;17.48;;;25.00;87.30;;;;;;6173667;28;83512;-57
2022/08/24 00:23:51;;;;;;;31.30;17.10;;;25.00;87.30;;;;;;6167765;28;87352;-57
2022/08/24 00:26:52;;;;;;;39.08;18.90;;;25.00;87.60;;;;;;6161869;28;84233;-58
2022/08/24 00:29:54;;;;;;;32.88;17.13;;;25.00;86.70;;;;;;6171907;28;83139;-56
2022/08/24 00:32:54;;;;;;;29.60;16.70;;;25.00;86.80;;;;;;6174934;28;83895;-57
2022/08/24 00:35:55;;;;;;;30.58;16.27;;;25.00;86.60;;;;;;6167234;28;85617;-55
2022/08/24 00:38:55;;;;;;;32.15;16.77;;;25.10;86.20;;;;;;6179995;28;86908;-57
2022/08/24 00:41:56;;;;;;;30.77;17.85;;;25.20;85.80;;;;;;6187256;28;83167;-58
2022/08/24 00:44:57;;;;;;;30.58;18.00;;;25.10;85.90;;;;;;6173126;28;84222;-59
2022/08/24 00:47:57;;;;;;;28.35;16.80;;;25.10;86.00;;;;;;6172124;28;83111;-59
2022/08/24 00:50:58;;;;;;;34.45;18.40;;;25.10;86.30;;;;;;6168760;28;83531;-59
2022/08/24 00:53:58;;;;;;;37.83;17.52;;;25.00;86.30;;;;;;6168108;28;83220;-59
2022/08/24 00:56:59;;;;;;;33.40;18.15;;;25.00;86.10;;;;;;6168220;28;83051;-60
2022/08/24 00:59:59;;;;;;;30.08;17.70;;;25.10;86.00;;;;;;6172016;28;83325;-59
2022/08/24 01:03:03;;;;;;;32.75;16.95;;;25.10;85.70;;;;;;6162674;28;88049;-59
2022/08/24 01:06:03;;;;;;;32.72;18.50;;;25.20;85.40;;;;;;6181861;28;83337;-59
2022/08/24 01:09:04;;;;;;;33.13;17.98;;;25.10;85.30;;;;;;6151760;28;86032;-59
2022/08/24 01:12:04;;;;;;;35.03;17.83;;;25.20;85.40;;;;;;6157481;28;84298;-59
2022/08/24 01:15:05;;;;;;;32.38;18.38;;;25.20;85.20;;;;;;6164338;28;85738;-59
2022/08/24 01:21:25;;;;;;;32.15;18.92;;;25.30;84.90;;;;;;6178566;28;84249;-57
2022/08/24 01:24:25;;;;;;;30.88;16.75;;;25.30;84.80;;;;;;6167542;28;85832;-57
2022/08/24 01:27:26;;;;;;;33.75;17.70;;;25.30;84.40;;;;;;6156704;28;87755;-56
2022/08/24 01:30:26;;;;;;;27.27;16.20;;;25.40;84.20;;;;;;6171374;28;83201;-58
2022/08/24 01:33:27;;;;;;;34.35;17.88;;;25.40;84.00;;;;;;6151232;28;88601;-58
2022/08/24 01:36:27;;;;;;;38.75;19.55;;;25.30;84.50;;;;;;6166996;28;83671;-58
2022/08/24 01:39:28;;;;;;;35.20;17.83;;;25.30;84.50;;;;;;6150435;28;85932;-57
2022/08/24 01:42:29;;;;;;;31.17;17.95;;;25.30;84.40;;;;;;6167889;28;85720;-55
2022/08/24 01:45:29;;;;;;;34.70;18.48;;;25.30;84.20;;;;;;6163626;28;82789;-57
2022/08/24 01:48:30;;;;;;;31.83;17.58;;;25.40;84.20;;;;;;6151020;28;84741;-57
2022/08/24 01:51:30;;;;;;;38.28;18.40;;;25.50;83.70;;;;;;6158345;28;83075;-57
2022/08/24 01:54:31;;;;;;;36.70;18.20;;;25.40;83.60;;;;;;6149006;28;86213;-57
2022/08/24 01:57:31;;;;;;;34.45;18.63;;;25.50;83.50;;;;;;6151438;28;85651;-57
2022/08/24 02:00:33;;;;;;;35.05;19.60;;;25.50;84.00;;;;;;6156494;28;88914;-57
2022/08/24 02:03:33;;;;;;;37.83;19.13;;;25.40;83.30;;;;;;6173453;28;86175;-57
2022/08/24 02:06:35;;;;;;;36.33;18.25;;;25.30;83.80;;;;;;6165385;28;86074;-57
2022/08/24 02:09:36;;;;;;;38.42;20.05;;;25.30;84.00;;;;;;6172920;28;83528;-56
2022/08/24 02:12:38;;;;;;;36.58;19.08;;;25.10;84.60;;;;;;6153311;28;83433;-56
2022/08/24 02:15:38;;;;;;;41.58;21.17;;;25.20;84.60;;;;;;6166762;28;83808;-55
2022/08/24 02:18:41;;;;;;;37.80;20.33;;;25.20;84.50;;;;;;6149839;28;84859;-55
2022/08/24 02:21:41;;;;;;;38.47;19.48;;;25.10;85.20;;;;;;6150138;28;86077;-54
2022/08/24 02:24:42;;;;;;;40.17;19.13;;;25.10;85.20;;;;;;6181785;28;85763;-56
2022/08/24 02:27:42;;;;;;;41.30;19.60;;;25.10;85.00;;;;;;6154448;28;84624;-56
2022/08/24 02:30:43;;;;;;;33.45;19.08;;;25.20;84.90;;;;;;6169571;28;86162;-57
2022/08/24 02:33:44;;;;;;;40.30;20.80;;;25.20;85.30;;;;;;6172232;28;83913;-59
2022/08/24 02:36:44;;;;;;;36.25;18.30;;;25.10;84.90;;;;;;6173183;28;83035;-58
2022/08/24 02:39:45;;;;;;;41.90;19.27;;;25.10;85.00;;;;;;6136328;28;90621;-58
2022/08/24 02:42:49;;;;;;;44.97;21.63;;;25.10;85.30;;;;;;6140794;28;85201;-58
2022/08/24 02:45:49;;;;;;;37.17;19.92;;;25.00;85.60;;;;;;6173863;28;84441;-58
2022/08/24 02:48:50;;;;;;;34.25;19.88;;;25.10;85.30;;;;;;6168969;28;83993;-58
2022/08/24 02:51:51;;;;;;;42.30;18.95;;;25.10;85.10;;;;;;6173546;28;84487;-57
2022/08/24 02:54:54;;;;;;;41.75;22.27;;;25.10;85.20;;;;;;6168572;28;85270;-58
2022/08/24 02:57:54;;;;;;;43.88;21.10;;;25.10;84.90;;;;;;6148373;28;87703;-58
2022/08/24 03:00:56;;;;;;;46.75;22.42;;;25.10;85.00;;;;;;6139072;28;85801;-58
2022/08/24 03:03:56;;;;;;;54.53;22.50;;;25.00;85.60;;;;;;6179429;28;83384;-58
2022/08/24 03:06:57;;;;;;;49.08;21.80;;;25.00;85.70;;;;;;6151657;28;86691;-57
2022/08/24 03:09:58;;;;;;;49.60;22.98;;;25.10;85.60;;;;;;6155579;28;86611;-58
2022/08/24 03:13:00;;;;;;;37.63;19.25;;;25.00;85.90;;;;;;6164989;28;85728;-58
2022/08/24 03:16:00;;;;;;;45.17;20.65;;;25.10;85.70;;;;;;6181452;28;83184;-59
2022/08/24 03:19:02;;;;;;;39.53;20.80;;;25.10;85.10;;;;;;6158854;28;85563;-58
2022/08/24 03:22:06;;;;;;;45.10;21.98;;;25.20;85.00;;;;;;6170017;28;84168;-58
2022/08/24 03:25:06;;;;;;;39.33;20.23;;;25.20;84.80;;;;;;6151787;28;85566;-58
2022/08/24 03:28:07;;;;;;;35.80;18.85;;;25.30;84.60;;;;;;6149558;28;85509;-57
2022/08/24 03:31:07;;;;;;;45.83;20.80;;;25.30;84.20;;;;;;6165192;28;85427;-58
2022/08/24 03:34:12;;;;;;;51.35;22.08;;;25.40;84.10;;;;;;6166886;28;84247;-58
2022/08/24 03:37:14;;;;;;;36.97;18.98;;;25.40;84.10;;;;;;6156239;28;84655;-57
2022/08/24 03:40:15;;;;;;;46.45;20.73;;;25.40;84.00;;;;;;6170392;28;86224;-58
2022/08/24 03:46:35;;;;;;;44.00;21.15;;;25.40;84.10;;;;;;6160858;28;87659;-57
2022/08/24 03:49:36;;;;;;;43.72;21.45;;;25.40;84.10;;;;;;6152462;28;86242;-58
2022/08/24 03:52:36;;;;;;;40.38;21.17;;;25.40;84.00;;;;;;6169832;28;83384;-59
2022/08/24 03:55:37;;;;;;;37.50;19.63;;;25.40;84.10;;;;;;6162807;28;83247;-58
2022/08/24 03:58:38;;;;;;;36.20;18.88;;;25.40;84.10;;;;;;6162812;28;85796;-59
2022/08/24 04:01:39;;;;;;;38.72;20.02;;;25.40;84.40;;;;;;6164809;28;85213;-58
2022/08/24 04:04:41;;;;;;;35.78;19.33;;;25.40;84.30;;;;;;6163635;28;86009;-58
2022/08/24 04:07:42;;;;;;;40.00;19.35;;;25.40;84.40;;;;;;6137862;28;84912;-57
2022/08/24 04:10:42;;;;;;;34.03;17.92;;;25.40;84.40;;;;;;6176153;28;86582;-58
2022/08/24 04:13:43;;;;;;;34.50;19.42;;;25.40;84.40;;;;;;6159199;28;85388;-57
2022/08/24 04:16:44;;;;;;;40.72;20.02;;;25.40;84.30;;;;;;6153058;28;84514;-59
2022/08/24 04:19:57;;;;;;;36.63;19.23;;;25.50;84.30;;;;;;6138004;28;86205;-60
2022/08/24 04:23:01;;;;;;;38.17;18.45;;;25.50;84.40;;;;;;6153642;28;85746;-59
2022/08/24 04:26:02;;;;;;;34.75;18.38;;;25.50;84.20;;;;;;6150901;28;89148;-57
2022/08/24 04:29:04;;;;;;;40.67;18.38;;;25.50;83.90;;;;;;6150142;28;86140;-59
2022/08/24 04:32:06;;;;;;;36.50;20.15;;;25.50;84.00;;;;;;6160471;28;86214;-59
2022/08/24 04:35:07;;;;;;;41.28;19.15;;;25.50;83.90;;;;;;6169020;28;87288;-59
2022/08/24 04:38:08;;;;;;;43.03;21.48;;;25.50;84.00;;;;;;6179801;28;86458;-60
2022/08/24 04:41:11;;;;;;;37.92;20.63;;;25.50;84.20;;;;;;6147994;28;85459;-60
2022/08/24 04:44:11;;;;;;;45.08;20.15;;;25.50;84.20;;;;;;6150938;28;86369;-59
2022/08/24 04:47:12;;;;;;;44.63;22.40;;;25.50;84.00;;;;;;6147746;28;86396;-59
2022/08/24 04:50:13;;;;;;;49.67;22.70;;;25.50;84.10;;;;;;6148989;28;85050;-60
2022/08/24 04:53:14;;;;;;;43.28;21.00;;;25.50;84.30;;;;;;6167680;28;83094;-61
2022/08/24 04:56:19;;;;;;;48.83;22.27;;;25.50;84.10;;;;;;6156703;28;86070;-60
2022/08/24 04:59:20;;;;;;;36.53;20.30;;;25.50;83.90;;;;;;6167743;28;87345;-60
2022/08/24 05:02:21;;;;;;;42.97;21.58;;;25.50;83.90;;;;;;6146737;28;86086;-60
2022/08/24 05:05:23;;;;;;;43.75;21.85;;;25.60;83.90;;;;;;6171422;28;86118;-61
2022/08/24 05:08:24;;;;;;;41.53;22.17;;;25.60;83.80;;;;;;6167155;28;86058;-60
2022/08/24 05:11:25;;;;;;;47.55;22.92;;;25.60;83.80;;;;;;6172410;28;84760;-60
2022/08/24 05:14:26;;;;;;;56.63;24.05;;;25.60;83.80;;;;;;6170548;28;86041;-59
2022/08/24 05:17:27;;;;;;;48.30;22.92;;;25.60;83.70;;;;;;6153602;28;86060;-60
2022/08/24 05:20:28;;;;;;;47.67;23.73;;;25.60;83.70;;;;;;6178406;28;84100;-60
2022/08/24 05:23:29;;;;;;;50.28;23.02;;;25.70;83.90;;;;;;6151868;28;84506;-59
2022/08/24 05:26:30;;;;;;;52.20;22.42;;;25.70;84.00;;;;;;6136935;28;84362;-59
2022/08/24 05:29:33;;;;;;;47.45;23.05;;;25.70;84.10;;;;;;6170404;28;83753;-60
2022/08/24 05:32:34;;;;;;;53.80;24.20;;;25.70;84.50;;;;;;6160288;28;86840;-60
2022/08/24 05:35:34;;;;;;;56.83;26.23;;;25.70;85.00;;;;;;6153678;28;86757;-60
2022/08/24 05:38:35;;;;;;;53.60;24.80;;;25.70;84.90;;;;;;6172816;28;86002;-57
2022/08/24 05:41:36;;;;;;;56.50;25.63;;;25.70;84.90;;;;;;6147080;28;86271;-59
2022/08/24 05:44:47;;;;;;;60.03;25.60;;;25.60;85.00;;;;;;6134999;28;85229;-59
2022/08/24 05:47:51;;;;;;;56.63;25.83;;;25.60;85.00;;;;;;6143514;28;86705;-59
2022/08/24 05:51:10;;;;;;;64.43;25.58;;;25.60;84.90;;;;;;6161006;28;86765;-59
2022/08/24 05:54:22;;;;;;;66.57;28.00;;;25.50;85.00;;;;;;6148608;28;84861;-60
2022/08/24 05:57:30;;;;;;;67.78;26.05;;;25.50;85.00;;;;;;6153436;28;85523;-60
2022/08/24 06:00:44;;;;;;;59.83;26.15;;;25.50;85.60;;;;;;6155757;28;85771;-60
2022/08/24 06:03:45;;;;;;;63.55;26.88;;;25.50;85.30;;;;;;6152110;28;86381;-59
2022/08/24 06:06:48;;;;;;;62.33;27.33;;;25.50;85.40;;;;;;6126383;28;86840;-60
2022/08/24 06:09:52;;;;;;;70.75;25.65;;;25.50;85.90;;;;;;6152720;28;85266;-59
2022/08/24 06:12:53;;;;;;;49.70;23.65;;;25.50;85.90;;;;;;6155255;28;85867;-60
2022/08/24 06:15:54;;;;;;;51.85;23.70;;;25.50;85.70;;;;;;6149602;28;86266;-59
2022/08/24 06:18:54;;;;;;;58.25;24.10;;;25.50;86.60;;;;;;6156792;28;84997;-59
2022/08/24 06:21:56;;;;;;;48.72;22.88;;;25.60;86.50;;;;;;6148273;28;84041;-59
2022/08/24 06:28:18;;;;;;;57.42;23.27;;;25.60;86.00;;;;;;6144691;28;86000;-60
2022/08/24 06:31:18;;;;;;;62.25;22.92;;;25.50;85.90;;;;;;6144920;28;85718;-58
2022/08/24 06:34:19;;;;;;;48.13;22.73;;;25.50;85.80;;;;;;6153536;28;86036;-57
2022/08/24 06:37:25;;;;;;;48.30;21.63;;;25.50;85.60;;;;;;6147960;28;85279;-56
2022/08/24 06:40:26;;;;;;;46.33;21.63;;;25.50;85.40;;;;;;6169318;28;82839;-58
2022/08/24 06:43:27;;;;;;;42.67;18.77;;;25.50;85.30;;;;;;6150851;28;85915;-57
2022/08/24 06:46:27;;;;;;;39.95;20.45;;;25.50;85.10;;;;;;6164737;28;86015;-54
2022/08/24 06:49:30;;;;;;;41.40;20.55;;;25.50;85.20;;;;;;6152335;28;90241;-60
2022/08/24 06:52:30;;;;;;;46.15;20.77;;;25.50;85.10;;;;;;6144613;28;84782;-58
2022/08/24 06:55:31;;;;;;;51.58;20.63;;;25.40;85.10;;;;;;6164127;28;86122;-55
2022/08/24 06:58:32;;;;;;;46.92;19.88;;;25.30;85.60;;;;;;6143657;28;85189;-57
2022/08/24 07:01:33;;;;;;;42.67;18.92;;;25.40;85.90;;;;;;6132206;28;87051;-58
2022/08/24 07:04:34;;;;;;;35.55;18.48;;;25.50;85.40;;;;;;6143241;28;85370;-58
2022/08/24 07:07:54;;;;;;;45.35;20.42;;;25.50;85.10;;;;;;6167295;28;83318;-55
2022/08/24 07:10:54;;;;;;;37.78;17.75;;;25.50;85.50;;;;;;6138002;28;84904;-53
2022/08/24 07:13:55;;;;;;;46.60;20.48;;;25.60;85.00;;;;;;6152387;28;85645;-57
2022/08/24 07:16:57;;;;;;;35.08;18.05;;;25.60;84.80;;;;;;6151364;28;86080;-56
2022/08/24 07:19:57;;;;;;;36.85;17.45;;;25.60;84.80;;;;;;6159278;28;85812;-56
2022/08/24 07:23:18;;;;;;;33.10;18.20;;;25.60;84.90;;;;;;6173954;28;87618;-57
2022/08/24 07:26:20;;;;;;;32.83;15.75;;;25.60;84.90;;;;;;6152597;28;85089;-53
2022/08/24 07:29:21;;;;;;;32.95;16.65;;;25.70;84.90;;;;;;6183414;28;82850;-57
2022/08/24 07:32:22;;;;;;;34.00;15.30;;;25.70;84.40;;;;;;6157574;28;86024;-56
2022/08/24 07:35:24;;;;;;;38.80;16.85;;;25.70;84.30;;;;;;6175527;28;84101;-55
2022/08/24 07:38:25;;;;;;;31.83;16.13;;;25.70;84.00;;;;;;6151532;28;85466;-53
2022/08/24 07:41:26;;;;;;;42.03;16.08;;;25.70;83.80;;;;;;6154118;28;85654;-58
2022/08/24 07:44:26;;;;;;;38.75;17.08;;;25.70;83.80;;;;;;6169644;28;84297;-59
2022/08/24 07:47:28;;;;;;;32.70;16.67;;;25.70;83.80;;;;;;6161648;28;91636;-58
2022/08/24 07:50:29;;;;;;;39.00;16.08;;;25.70;84.10;;;;;;6160035;28;85246;-57
2022/08/24 07:53:30;;;;;;;29.90;14.65;;;25.70;83.60;;;;;;6155634;28;86044;-59
2022/08/24 07:56:30;;;;;;;36.65;15.40;;;25.70;83.70;;;;;;6160791;28;85983;-57
2022/08/24 07:59:34;;;;;;;29.85;14.63;;;25.70;83.90;;;;;;6158344;28;84287;-58
2022/08/24 08:02:35;;;;;;;44.85;16.98;;;25.80;84.20;;;;;;6153380;28;86096;-58
2022/08/24 08:05:36;;;;;;;33.13;14.70;;;25.80;84.10;;;;;;6148572;28;84662;-58
2022/08/24 08:08:36;;;;;;;34.28;15.30;;;25.80;84.20;;;;;;6164278;28;86110;-58
2022/08/24 08:11:37;;;;;;;37.80;15.13;;;25.90;83.90;;;;;;6153630;28;84593;-58
2022/08/24 08:14:38;;;;;;;36.67;15.50;;;25.90;84.00;;;;;;6177971;28;86359;-57
2022/08/24 08:17:38;;;;;;;35.80;13.88;;;25.90;83.60;;;;;;6161636;28;86275;-58
2022/08/24 08:20:39;;;;;;;28.25;13.80;;;25.90;83.60;;;;;;6171276;28;85171;-56
2022/08/24 08:27:04;;;;;;;41.30;15.50;;;26.00;83.00;;;;;;6144316;28;90665;-57
2022/08/24 08:30:10;;;;;;;37.65;16.23;;;26.00;83.20;;;;;;6157073;28;86563;-56
2022/08/24 08:33:11;;;;;;;27.80;14.85;;;26.10;83.20;;;;;;6162324;28;84541;-57
2022/08/24 08:36:11;;;;;;;28.42;13.07;;;26.10;83.10;;;;;;6169114;28;83556;-58
2022/08/24 08:39:18;;;;;;;30.65;14.52;;;26.10;82.40;;;;;;6151237;28;86699;-61
2022/08/24 08:42:19;;;;;;;28.15;14.60;;;26.00;83.50;;;;;;6182599;28;85356;-63
2022/08/24 08:45:20;;;;;;;32.45;14.35;;;25.90;83.50;;;;;;6168116;28;86242;-62
2022/08/24 08:48:23;;;;;;;33.15;14.50;;;25.90;83.50;;;;;;6167305;28;84384;-63
2022/08/24 08:51:23;;;;;;;42.35;13.63;;;26.00;82.80;;;;;;6150861;28;85665;-63
2022/08/24 08:54:24;;;;;;;32.22;14.45;;;25.90;82.80;;;;;;6149075;28;85585;-61
2022/08/24 08:57:25;;;;;;;33.13;14.55;;;25.80;83.10;;;;;;6140661;28;85615;-63
2022/08/24 09:00:26;;;;;;;26.80;13.48;;;25.80;83.90;;;;;;6166251;28;83682;-61
2022/08/24 09:03:32;;;;;;;30.13;14.45;;;25.60;84.20;;;;;;6135375;28;86103;-60
2022/08/24 09:07:05;;;;;;;31.20;14.25;;;25.70;83.90;;;;;;6129752;28;84779;-61
2022/08/24 09:10:11;;;;;;;35.45;14.27;;;25.70;83.80;;;;;;6130007;28;85640;-61
2022/08/24 09:13:11;;;;;;;35.10;15.40;;;25.30;84.90;;;;;;6147430;28;84114;-61
2022/08/24 09:16:13;;;;;;;31.92;15.32;;;25.20;86.20;;;;;;6119669;28;84399;-61
2022/08/24 09:19:17;;;;;;;35.55;13.77;;;25.40;85.80;;;;;;6114290;28;85744;-59
2022/08/24 09:22:18;;;;;;;30.23;13.65;;;25.50;85.20;;;;;;6106704;28;85287;-60
2022/08/24 09:25:19;;;;;;;26.65;13.80;;;25.70;84.70;;;;;;6119441;28;84619;-60
2022/08/24 09:28:21;;;;;;;25.80;13.88;;;25.80;84.40;;;;;;6128844;28;86922;-60
2022/08/24 09:31:22;;;;;;;29.30;14.00;;;25.90;84.00;;;;;;6129480;28;83039;-60
2022/08/24 09:34:23;;;;;;;33.97;14.18;;;25.90;84.10;;;;;;6142350;28;90070;-61
2022/08/24 09:37:24;;;;;;;38.20;14.65;;;26.00;83.70;;;;;;6149091;28;83408;-60
2022/08/24 09:40:25;;;;;;;29.80;13.80;;;26.00;84.00;;;;;;6155377;28;83366;-61
2022/08/24 09:43:27;;;;;;;29.60;14.60;;;25.90;83.00;;;;;;6143684;28;86685;-61
2022/08/24 09:46:28;;;;;;;33.00;14.68;;;25.90;83.90;;;;;;6148638;28;82870;-63
2022/08/24 09:49:28;;;;;;;39.63;13.70;;;26.00;83.20;;;;;;6130778;28;83443;-63
2022/08/24 09:52:29;;;;;;;36.05;13.15;;;26.10;82.90;;;;;;6146183;28;82876;-60
2022/08/24 09:55:29;;;;;;;34.33;14.75;;;26.20;82.60;;;;;;6158056;28;83494;-56
2022/08/24 09:58:30;;;;;;;38.80;14.18;;;26.30;82.60;;;;;;6151637;28;83289;-55
2022/08/24 10:01:30;;;;;;;36.75;14.90;;;26.30;82.80;;;;;;6141723;28;83539;-51
2022/08/24 10:04:30;;;;;;;39.30;13.82;;;26.40;82.70;;;;;;6115071;28;85676;-56
2022/08/24 10:07:31;;;;;;;34.50;13.27;;;26.30;82.50;;;;;;6140540;28;83813;-59
2022/08/24 10:10:32;;;;;;;39.40;13.82;;;26.30;82.40;;;;;;6144580;28;82946;-56
2022/08/24 10:13:32;;;;;;;53.10;14.65;;;26.30;82.70;;;;;;6162174;28;84029;-56
2022/08/24 10:16:33;;;;;;;37.10;15.93;;;26.30;82.60;;;;;;6162066;28;83653;-57
2022/08/24 10:19:33;;;;;;;57.42;16.98;;;26.30;82.60;;;;;;6159116;28;84138;-57
2022/08/24 10:22:34;;;;;;;45.35;15.93;;;26.30;82.90;;;;;;6134834;28;86718;-55
2022/08/24 10:25:34;;;;;;;35.05;13.82;;;26.30;82.50;;;;;;6147155;28;85239;-56
2022/08/24 10:28:36;;;;;;;40.00;14.80;;;26.20;81.70;;;;;;6160980;28;83852;-57
2022/08/24 10:31:36;;;;;;;37.05;14.70;;;26.20;82.50;;;;;;6147792;28;83459;-57
2022/08/24 10:34:37;;;;;;;36.38;15.02;;;26.10;82.60;;;;;;6152569;28;83160;-57
2022/08/24 10:37:37;;;;;;;40.53;14.05;;;26.10;83.30;;;;;;6153334;28;83524;-56
2022/08/24 10:40:38;;;;;;;41.28;15.45;;;26.00;83.60;;;;;;6148797;28;83106;-57
2022/08/24 10:43:39;;;;;;;37.88;15.07;;;26.10;84.60;;;;;;6158316;28;83428;-56
2022/08/24 10:52:53;;;;;;;76.30;22.45;;;26.30;86.30;;;;;;6180415;28;86540;-56
2022/08/24 10:55:54;;;;;;;57.80;20.15;;;26.40;87.50;;;;;;6198282;28;84364;-58
2022/08/24 10:58:54;;;;;;;63.65;23.45;;;26.50;84.70;;;;;;6194326;28;86136;-56
2022/08/24 11:01:55;;;;;;;61.05;21.50;;;26.60;84.70;;;;;;6180669;28;83335;-57
2022/08/24 11:04:55;;;;;;;52.47;19.48;;;26.60;84.40;;;;;;6183732;28;83916;-57
2022/08/24 11:07:56;;;;;;;62.63;19.63;;;26.70;84.40;;;;;;6195803;28;83736;-56
2022/08/24 11:10:56;;;;;;;54.65;19.55;;;26.70;84.30;;;;;;6187150;28;83561;-55
2022/08/24 11:13:59;;;;;;;58.03;19.52;;;26.70;84.50;;;;;;6171203;28;83701;-58
2022/08/24 11:16:59;;;;;;;57.60;20.00;;;26.70;85.70;;;;;;6198113;28;83169;-57
2022/08/24 11:20:00;;;;;;;52.83;17.52;;;26.80;85.60;;;;;;6191128;28;83999;-56
2022/08/24 11:23:01;;;;;;;51.80;16.27;;;26.80;85.30;;;;;;6197583;28;83040;-56
2022/08/24 11:26:02;;;;;;;44.55;15.68;;;26.90;84.90;;;;;;6195164;28;82842;-56
2022/08/24 11:29:02;;;;;;;38.35;16.52;;;26.90;84.40;;;;;;6192360;28;83535;-56
2022/08/24 11:32:03;;;;;;;37.10;15.02;;;26.90;84.10;;;;;;6192559;28;84294;-53
2022/08/24 11:35:04;;;;;;;43.45;14.70;;;26.90;83.40;;;;;;6190203;28;87466;-56
2022/08/24 11:38:04;;;;;;;35.10;13.60;;;26.90;83.20;;;;;;6190065;28;82937;-56
2022/08/24 11:41:05;;;;;;;51.17;14.20;;;26.90;82.20;;;;;;6194484;28;84410;-55
2022/08/24 11:44:06;;;;;;;44.30;14.65;;;26.90;82.20;;;;;;6193510;28;83123;-58
2022/08/24 11:47:06;;;;;;;38.13;13.52;;;26.90;81.60;;;;;;6199354;28;83272;-58
2022/08/24 11:50:07;;;;;;;40.50;13.70;;;26.90;81.00;;;;;;6194610;28;83529;-58
2022/08/24 11:53:07;;;;;;;36.65;15.15;;;26.90;81.40;;;;;;6191313;28;88042;-57
2022/08/24 11:56:09;;;;;;;38.70;13.43;;;26.90;81.10;;;;;;6197336;28;83013;-58
2022/08/24 11:59:09;;;;;;;47.38;15.02;;;26.90;82.00;;;;;;6178065;28;84521;-56
2022/08/24 12:02:10;;;;;;;41.13;15.38;;;26.90;81.70;;;;;;6188655;28;83484;-58
2022/08/24 12:05:10;;;;;;;44.50;14.82;;;26.90;81.60;;;;;;6194203;28;84085;-56
2022/08/24 12:08:11;;;;;;;36.60;14.75;;;26.90;81.30;;;;;;6190357;28;83716;-57
2022/08/24 12:11:12;;;;;;;42.83;14.50;;;27.00;80.80;;;;;;6191498;28;83398;-55
2022/08/24 12:14:12;;;;;;;43.25;13.50;;;26.90;80.80;;;;;;6188906;28;83372;-58
2022/08/24 12:17:13;;;;;;;42.92;14.55;;;26.90;81.20;;;;;;6186444;28;86756;-58
2022/08/24 12:20:13;;;;;;;34.63;13.60;;;26.90;81.20;;;;;;6188339;28;83130;-58
2022/08/24 12:23:14;;;;;;;48.83;15.88;;;26.90;81.20;;;;;;6184929;28;85807;-58
2022/08/24 12:26:14;;;;;;;31.52;13.38;;;26.90;81.50;;;;;;6174372;28;83228;-60
2022/08/24 12:29:15;;;;;;;39.42;13.98;;;26.90;81.70;;;;;;6186774;28;86340;-53
2022/08/24 12:32:15;;;;;;;37.63;13.20;;;26.90;81.90;;;;;;6174402;28;86649;-57
2022/08/24 12:35:16;;;;;;;37.20;13.40;;;26.90;82.50;;;;;;6170776;28;86718;-56
2022/08/24 12:38:16;;;;;;;40.33;13.43;;;26.90;83.20;;;;;;6185151;28;88737;-56
2022/08/24 12:41:17;;;;;;;37.65;13.30;;;26.90;82.60;;;;;;6184787;28;84961;-58
2022/08/24 12:44:17;;;;;;;31.70;13.15;;;26.90;82.60;;;;;;6189784;28;84726;-58
2022/08/24 12:47:18;;;;;;;27.42;12.30;;;26.90;82.10;;;;;;6191497;28;83369;-55
2022/08/24 12:50:19;;;;;;;34.47;11.43;;;26.90;82.40;;;;;;6186453;28;86640;-57
2022/08/24 12:53:19;;;;;;;34.45;12.35;;;26.90;82.70;;;;;;6192202;28;83487;-61
2022/08/24 12:56:20;;;;;;;28.85;13.55;;;26.90;82.50;;;;;;6176106;28;88127;-58
2022/08/24 12:59:20;;;;;;;29.00;12.77;;;26.90;82.90;;;;;;6153328;28;84075;-58
2022/08/24 13:02:21;;;;;;;46.40;13.73;;;26.90;82.10;;;;;;6185465;28;83093;-57
2022/08/24 13:05:21;;;;;;;44.92;14.95;;;26.90;81.70;;;;;;6174201;28;83298;-60
2022/08/24 13:08:22;;;;;;;34.40;13.20;;;26.90;81.60;;;;;;6169608;28;84065;-60
2022/08/24 13:11:22;;;;;;;37.55;13.77;;;26.80;81.30;;;;;;6168745;28;83205;-59
2022/08/24 13:14:23;;;;;;;34.10;12.85;;;26.80;81.60;;;;;;6170779;28;83010;-63
2022/08/24 13:17:24;;;;;;;36.80;13.52;;;26.80;81.50;;;;;;6175556;28;83219;-60
2022/08/24 13:20:24;;;;;;;29.55;13.05;;;26.80;81.10;;;;;;6179032;28;83763;-58
2022/08/24 13:23:26;;;;;;;38.63;13.18;;;26.70;81.20;;;;;;6162561;28;85295;-57
2022/08/24 13:26:26;;;;;;;41.10;14.32;;;26.80;81.40;;;;;;6164186;28;83204;-58
2022/08/24 13:29:27;;;;;;;33.65;13.98;;;26.80;81.20;;;;;;6162758;28;87409;-58
2022/08/24 13:32:27;;;;;;;36.90;12.50;;;26.70;81.20;;;;;;6167131;28;83913;-58
2022/08/24 13:35:28;;;;;;;45.47;13.18;;;26.80;81.20;;;;;;6166494;28;86029;-58
2022/08/24 13:38:28;;;;;;;38.50;13.73;;;26.80;80.90;;;;;;6170629;28;82886;-58
2022/08/24 13:41:29;;;;;;;45.15;12.90;;;26.90;81.10;;;;;;6165807;28;83332;-59
2022/08/24 13:44:29;;;;;;;45.58;13.40;;;26.90;81.10;;;;;;6178531;28;86436;-58
2022/08/24 13:47:30;;;;;;;38.25;13.02;;;26.90;80.80;;;;;;6179402;28;82893;-59
2022/08/24 13:50:30;;;;;;;42.28;13.88;;;26.90;80.70;;;;;;6184971;28;83506;-59
2022/08/24 13:53:31;;;;;;;40.33;14.13;;;26.90;81.00;;;;;;6183056;28;83350;-59
2022/08/24 13:56:32;;;;;;;37.30;13.57;;;26.90;81.10;;;;;;6163694;28;86339;-59
2022/08/24 13:59:32;;;;;;;33.97;13.07;;;27.00;80.80;;;;;;6163138;28;88590;-59
2022/08/24 14:02:32;;;;;;;36.85;13.45;;;27.00;80.80;;;;;;6190955;28;83248;-59
2022/08/24 14:05:34;;;;;;;40.40;14.98;;;27.00;81.30;;;;;;6187426;28;84146;-59
2022/08/24 14:08:35;;;;;;;48.42;17.17;;;27.00;81.30;;;;;;6190794;28;88860;-59
2022/08/24 14:11:35;;;;;;;31.77;13.90;;;27.10;80.90;;;;;;6193778;28;84427;-58
2022/08/24 14:14:36;;;;;;;48.17;14.95;;;27.10;81.20;;;;;;6172263;28;85394;-59
2022/08/24 14:17:52;;;;;;;32.47;14.02;;;27.10;81.00;;;;;;6190740;28;83187;-59
2022/08/24 14:20:53;;;;;;;42.75;13.98;;;27.10;81.40;;;;;;6174987;28;84083;-59
2022/08/24 14:23:55;;;;;;;39.15;14.63;;;27.10;81.30;;;;;;6165825;28;83280;-58
2022/08/24 14:26:55;;;;;;;45.95;15.10;;;27.10;81.20;;;;;;6192715;28;83209;-58
2022/08/24 14:29:55;;;;;;;34.58;14.48;;;27.10;81.40;;;;;;6188434;28;85445;-59
2022/08/24 14:32:56;;;;;;;39.28;14.90;;;27.10;81.40;;;;;;6172163;28;83932;-59
2022/08/24 14:35:57;;;;;;;33.08;15.23;;;27.10;81.30;;;;;;6190019;28;83511;-59
2022/08/24 14:38:58;;;;;;;37.83;15.07;;;27.10;81.60;;;;;;6189763;28;85332;-59
2022/08/24 14:41:59;;;;;;;34.80;15.48;;;27.10;81.50;;;;;;6184328;28;86292;-58
2022/08/24 14:45:00;;;;;;;49.15;15.60;;;27.10;82.20;;;;;;6190257;28;84157;-59
2022/08/24 14:48:01;;;;;;;41.50;14.48;;;27.00;82.00;;;;;;6173274;28;83481;-60
2022/08/24 14:51:01;;;;;;;36.08;14.85;;;27.00;82.50;;;;;;6167972;28;86721;-62
2022/08/24 14:54:02;;;;;;;30.27;13.55;;;27.00;83.50;;;;;;6187578;28;83131;-61
2022/08/24 14:57:02;;;;;;;34.13;14.43;;;27.00;83.30;;;;;;6190803;28;83502;-60
2022/08/24 15:00:03;;;;;;;33.42;13.98;;;27.00;83.40;;;;;;6157218;28;87087;-58
2022/08/24 15:03:03;;;;;;;45.75;15.15;;;27.00;83.70;;;;;;6192090;28;84403;-58
2022/08/24 15:06:04;;;;;;;32.60;14.63;;;27.00;83.90;;;;;;6182204;28;84353;-59
2022/08/24 15:09:04;;;;;;;31.13;14.98;;;27.00;84.20;;;;;;6182088;28;88529;-59
2022/08/24 15:12:05;;;;;;;37.85;14.45;;;27.00;84.50;;;;;;6162702;28;85693;-60
2022/08/24 15:15:05;;;;;;;41.58;14.95;;;27.00;84.50;;;;;;6182899;28;83592;-59
2022/08/24 15:18:06;;;;;;;40.53;15.35;;;27.00;84.40;;;;;;6185309;28;83465;-58
2022/08/24 15:21:07;;;;;;;36.40;14.90;;;27.00;84.20;;;;;;6188970;28;83242;-58
2022/08/24 15:24:08;;;;;;;35.25;15.02;;;27.10;84.20;;;;;;6188053;28;84243;-58
2022/08/24 15:27:09;;;;;;;39.42;15.57;;;27.10;84.50;;;;;;6188615;28;83253;-58
2022/08/24 15:30:09;;;;;;;47.40;14.32;;;27.10;84.30;;;;;;6189008;28;83210;-57
2022/08/24 15:33:10;;;;;;;35.90;15.82;;;27.10;84.40;;;;;;6196011;28;83387;-56
2022/08/24 15:36:10;;;;;;;36.40;15.32;;;27.10;84.40;;;;;;6186993;28;87110;-59
2022/08/24 15:39:11;;;;;;;36.00;17.05;;;27.10;84.40;;;;;;6181907;28;86026;-59
2022/08/24 15:42:12;;;;;;;51.05;16.83;;;27.10;84.40;;;;;;6189118;28;83669;-58